Time;durP1;ratioP1;P1;durP2;ratioP2;P2;SDS_P1;SDS_P2;PMS_P1;PMS_P2;Temp;Humidity;BMP_temperature;BMP_pressure;BME280_temperature;BME280_humidity;BME280_pressure;Samples;Min_cycle;Max_cycle;Signal;HPM_P1;HPM_P2
2021/10/21 00:01:09;;;;;;;8.07;3.95;;;15.60;99.90;;;;;;5017604;28;20024;-92
2021/10/21 00:03:35;;;;;;;8.52;3.80;;;15.60;99.90;;;;;;5015925;28;20033;-90
2021/10/21 00:06:01;;;;;;;9.10;4.40;;;15.50;99.90;;;;;;5012078;28;20034;-91
2021/10/21 00:08:27;;;;;;;9.18;4.45;;;15.50;99.90;;;;;;5011301;28;20030;-91
2021/10/21 00:10:53;;;;;;;7.82;4.40;;;15.40;99.90;;;;;;5021923;28;20464;-91
2021/10/21 00:13:19;;;;;;;10.02;4.88;;;15.40;99.90;;;;;;5005848;28;20022;-91
2021/10/21 00:15:45;;;;;;;11.85;5.07;;;15.40;99.90;;;;;;5005206;28;20073;-91
2021/10/21 00:18:11;;;;;;;9.20;4.63;;;15.40;99.90;;;;;;5018861;28;20404;-90
2021/10/21 00:20:37;;;;;;;10.65;5.15;;;15.40;99.90;;;;;;5019028;28;20026;-91
2021/10/21 00:23:03;;;;;;;8.52;4.45;;;15.40;99.90;;;;;;5020251;28;20010;-90
2021/10/21 00:35:39;;;;;;;9.82;4.25;;;15.20;99.90;;;;;;5030632;28;20049;-96
2021/10/21 00:38:05;;;;;;;10.70;4.90;;;15.20;99.90;;;;;;5043077;28;20034;-95
2021/10/21 00:40:31;;;;;;;8.70;4.82;;;15.20;99.90;;;;;;5038773;28;20072;-93
2021/10/21 00:42:57;;;;;;;8.85;4.85;;;15.10;99.90;;;;;;5023667;28;20018;-90
2021/10/21 00:45:22;;;;;;;8.85;4.15;;;15.10;99.90;;;;;;4986716;28;20029;-94
2021/10/21 00:47:51;;;;;;;12.63;5.15;;;15.20;99.90;;;;;;5001318;28;20033;-95
2021/10/21 00:50:20;;;;;;;11.43;5.07;;;15.10;99.90;;;;;;5018497;28;20065;-94
2021/10/21 00:52:48;;;;;;;8.68;4.70;;;15.10;99.90;;;;;;5000307;28;20022;-94
2021/10/21 00:55:15;;;;;;;10.48;4.70;;;15.00;99.90;;;;;;5005976;28;20041;-93
2021/10/21 00:57:41;;;;;;;11.82;5.00;;;15.00;99.90;;;;;;5020610;28;20029;-91
2021/10/21 01:00:16;;;;;;;9.40;4.40;;;15.00;99.90;;;;;;5003621;28;20026;-93
2021/10/21 01:03:00;;;;;;;7.60;3.80;;;15.00;99.90;;;;;;5023013;28;20021;-92
2021/10/21 01:05:29;;;;;;;8.63;4.25;;;15.00;99.90;;;;;;5033956;28;20105;-92
2021/10/21 01:07:55;;;;;;;7.50;3.75;;;14.90;99.90;;;;;;5004261;28;20039;-92
2021/10/21 01:10:21;;;;;;;7.57;3.20;;;14.90;99.90;;;;;;5018435;28;20116;-90
2021/10/21 01:12:47;;;;;;;10.52;3.17;;;14.90;99.90;;;;;;5008429;28;20035;-91
2021/10/21 01:15:19;;;;;;;7.63;2.63;;;14.90;99.90;;;;;;5021736;28;20108;-91
2021/10/21 01:17:46;;;;;;;4.43;2.30;;;14.80;99.90;;;;;;5019817;28;20033;-90
2021/10/21 01:20:13;;;;;;;5.43;1.85;;;14.80;99.90;;;;;;5021743;28;20017;-90
2021/10/21 01:22:40;;;;;;;6.63;1.98;;;14.70;99.90;;;;;;5018885;28;20081;-91
2021/10/21 01:25:09;;;;;;;5.20;2.03;;;14.70;99.90;;;;;;5018858;28;20040;-90
2021/10/21 01:27:35;;;;;;;6.82;2.22;;;14.60;99.90;;;;;;5019221;28;20431;-90
2021/10/21 01:30:01;;;;;;;7.13;2.60;;;14.60;99.90;;;;;;5005740;28;20169;-91
2021/10/21 01:32:27;;;;;;;5.38;2.38;;;14.60;99.90;;;;;;5019213;28;20040;-92
2021/10/21 01:34:53;;;;;;;4.45;1.83;;;14.60;99.90;;;;;;5005625;28;20037;-90
2021/10/21 01:37:19;;;;;;;4.22;1.77;;;14.60;99.90;;;;;;5007883;28;20030;-91
2021/10/21 01:39:45;;;;;;;5.68;2.00;;;14.50;99.90;;;;;;5018178;28;20033;-90
2021/10/21 01:42:11;;;;;;;3.75;1.63;;;14.50;99.90;;;;;;5018738;28;20056;-93
2021/10/21 01:44:37;;;;;;;10.57;2.15;;;14.50;99.90;;;;;;5003384;28;20063;-91
2021/10/21 01:47:09;;;;;;;4.72;1.60;;;14.50;99.90;;;;;;5020904;28;20063;-93
2021/10/21 01:49:35;;;;;;;5.10;1.70;;;14.50;99.90;;;;;;5037465;28;20030;-95
2021/10/21 01:52:00;;;;;;;6.00;1.40;;;14.40;99.60;;;;;;5020449;28;20104;-90
2021/10/21 01:54:26;;;;;;;3.38;1.15;;;14.40;99.50;;;;;;5001920;28;20087;-91
2021/10/21 01:56:53;;;;;;;4.53;1.48;;;14.20;99.60;;;;;;5031080;28;20044;-91
2021/10/21 01:59:18;;;;;;;4.72;0.70;;;14.10;99.40;;;;;;4990801;28;20096;-92
2021/10/21 02:01:44;;;;;;;2.00;1.20;;;14.00;99.00;;;;;;5002753;28;20021;-94
2021/10/21 02:04:10;;;;;;;4.13;0.80;;;13.90;98.50;;;;;;5003452;28;20044;-93
2021/10/21 02:06:35;;;;;;;1.02;0.50;;;13.90;98.70;;;;;;5018866;28;20100;-91
2021/10/21 02:09:01;;;;;;;1.60;0.60;;;13.80;98.20;;;;;;5003168;28;20041;-91
2021/10/21 02:11:27;;;;;;;3.75;0.63;;;13.70;98.40;;;;;;5020657;28;20116;-91
2021/10/21 02:13:52;;;;;;;7.35;0.98;;;13.70;98.50;;;;;;5006072;28;20079;-94
2021/10/21 02:16:18;;;;;;;4.75;1.10;;;13.70;98.80;;;;;;5016317;28;20072;-94
2021/10/21 02:18:44;;;;;;;3.80;0.88;;;13.60;99.10;;;;;;5019050;28;20029;-93
2021/10/21 02:21:10;;;;;;;2.45;0.85;;;13.60;98.60;;;;;;5018832;28;20121;-94
2021/10/21 02:23:35;;;;;;;3.78;0.93;;;13.50;98.70;;;;;;5009368;28;20052;-93
2021/10/21 02:26:01;;;;;;;3.85;1.08;;;13.50;98.40;;;;;;5025050;28;20085;-93
2021/10/21 02:28:27;;;;;;;2.83;1.35;;;13.40;98.50;;;;;;5018926;28;20108;-92
2021/10/21 02:30:53;;;;;;;3.67;0.77;;;13.40;98.30;;;;;;4999085;28;20026;-92
2021/10/21 02:33:18;;;;;;;4.75;0.90;;;13.30;98.40;;;;;;5018373;28;20463;-92
2021/10/21 02:35:44;;;;;;;6.05;1.00;;;13.30;97.90;;;;;;5001944;28;20524;-91
2021/10/21 02:38:12;;;;;;;3.88;1.00;;;13.20;97.40;;;;;;5001838;28;20027;-92
2021/10/21 02:40:38;;;;;;;4.18;0.98;;;13.20;97.30;;;;;;5018608;28;20063;-89
2021/10/21 02:43:04;;;;;;;3.17;1.27;;;13.20;97.70;;;;;;5018328;28;20030;-90
2021/10/21 02:45:30;;;;;;;6.70;1.00;;;13.30;97.80;;;;;;5018065;28;20032;-89
2021/10/21 02:47:56;;;;;;;4.40;0.90;;;13.30;97.40;;;;;;5018165;28;20110;-90
2021/10/21 02:50:28;;;;;;;4.88;0.95;;;13.30;97.30;;;;;;5017653;28;20482;-90
2021/10/21 02:52:53;;;;;;;4.80;0.80;;;13.30;97.30;;;;;;5018148;28;20045;-89
2021/10/21 02:55:22;;;;;;;6.10;1.33;;;13.30;97.10;;;;;;5017891;28;20064;-91
2021/10/21 02:57:48;;;;;;;3.33;0.80;;;13.30;96.40;;;;;;5001745;28;20079;-90
2021/10/21 03:00:13;;;;;;;5.32;0.70;;;13.30;96.00;;;;;;5017956;28;20017;-90
2021/10/21 03:02:39;;;;;;;3.40;0.90;;;13.30;96.50;;;;;;5001900;28;20024;-89
2021/10/21 03:05:06;;;;;;;4.13;0.75;;;13.30;96.00;;;;;;5018153;28;20018;-90
2021/10/21 03:07:31;;;;;;;6.35;0.98;;;13.30;95.60;;;;;;5001498;28;20033;-89
2021/10/21 03:09:57;;;;;;;3.85;0.95;;;13.30;95.60;;;;;;5018090;28;20040;-90
2021/10/21 03:12:24;;;;;;;4.70;0.75;;;13.30;95.80;;;;;;5001166;28;20025;-89
2021/10/21 03:14:49;;;;;;;5.55;1.45;;;13.40;96.00;;;;;;5018658;28;20025;-89
2021/10/21 03:17:15;;;;;;;4.30;0.80;;;13.40;96.00;;;;;;4999141;28;20036;-90
2021/10/21 03:19:41;;;;;;;4.43;1.02;;;13.40;97.30;;;;;;5004621;28;20087;-89
2021/10/21 03:22:09;;;;;;;4.00;0.90;;;13.40;97.40;;;;;;5018211;28;20071;-90
2021/10/21 03:24:35;;;;;;;5.70;1.00;;;13.40;97.50;;;;;;5001650;28;20045;-90
2021/10/21 03:27:01;;;;;;;5.13;1.02;;;13.30;97.70;;;;;;5001411;28;20029;-90
2021/10/21 03:29:26;;;;;;;4.88;1.00;;;13.20;97.70;;;;;;5017481;28;20021;-89
2021/10/21 03:32:21;;;;;;;3.10;0.93;;;13.20;97.80;;;;;;5017343;28;20029;-91
2021/10/21 03:34:46;;;;;;;3.72;1.00;;;13.20;98.20;;;;;;5022611;28;20164;-90
2021/10/21 03:37:12;;;;;;;4.90;1.08;;;13.20;98.00;;;;;;5018670;28;20045;-92
2021/10/21 03:39:39;;;;;;;3.70;0.90;;;13.20;98.20;;;;;;5002201;28;20025;-92
2021/10/21 03:42:08;;;;;;;6.03;1.20;;;13.20;98.20;;;;;;5001750;28;20021;-90
2021/10/21 03:44:37;;;;;;;5.45;1.13;;;13.10;98.30;;;;;;5017396;28;20032;-89
2021/10/21 03:47:03;;;;;;;2.92;0.75;;;13.10;98.10;;;;;;5017047;28;20135;-90
2021/10/21 03:49:50;;;;;;;5.55;1.15;;;13.10;98.20;;;;;;5000765;28;20116;-89
2021/10/21 03:52:18;;;;;;;7.47;1.25;;;13.10;98.30;;;;;;5019887;28;20422;-89
2021/10/21 03:54:45;;;;;;;4.82;0.85;;;13.10;98.50;;;;;;5027987;28;20017;-89
2021/10/21 03:57:11;;;;;;;3.65;0.68;;;13.10;98.40;;;;;;5000621;28;20109;-90
2021/10/21 03:59:37;;;;;;;3.45;0.73;;;13.10;98.20;;;;;;5000803;28;20045;-89
2021/10/21 04:02:03;;;;;;;8.10;1.23;;;13.10;98.40;;;;;;5017681;28;20036;-90
2021/10/21 04:04:29;;;;;;;7.55;1.02;;;13.10;98.30;;;;;;5017206;28;20018;-91
2021/10/21 04:06:54;;;;;;;4.82;0.85;;;13.10;98.40;;;;;;5001168;28;20103;-92
2021/10/21 04:09:20;;;;;;;5.03;0.90;;;13.10;98.30;;;;;;5016932;28;20084;-89
2021/10/21 04:11:46;;;;;;;3.53;0.90;;;13.10;98.50;;;;;;5017226;28;20051;-89
2021/10/21 04:14:12;;;;;;;5.35;1.02;;;13.10;98.60;;;;;;5001642;28;20053;-90
2021/10/21 04:16:37;;;;;;;3.15;0.80;;;13.10;98.80;;;;;;5016986;28;20044;-90
2021/10/21 04:19:03;;;;;;;3.63;0.70;;;13.00;98.80;;;;;;5000674;28;20030;-88
2021/10/21 04:21:29;;;;;;;2.85;0.57;;;13.00;99.00;;;;;;5017401;28;20021;-89
2021/10/21 04:23:55;;;;;;;8.60;1.15;;;13.00;99.40;;;;;;5000905;28;20049;-90
2021/10/21 04:26:21;;;;;;;5.90;1.00;;;12.90;99.40;;;;;;5018145;28;20048;-91
2021/10/21 04:28:47;;;;;;;3.95;0.75;;;12.90;99.50;;;;;;5001059;28;20029;-91
2021/10/21 04:31:15;;;;;;;3.70;1.00;;;12.90;99.70;;;;;;5016967;28;20048;-91
2021/10/21 04:33:41;;;;;;;2.10;0.77;;;12.90;99.80;;;;;;5000583;28;20031;-91
2021/10/21 04:36:07;;;;;;;4.72;1.13;;;12.80;99.90;;;;;;5000671;28;20048;-90
2021/10/21 04:38:33;;;;;;;6.07;1.05;;;12.80;99.90;;;;;;5000596;28;20246;-90
2021/10/21 04:40:59;;;;;;;6.20;1.00;;;12.80;99.90;;;;;;5003418;28;20057;-90
2021/10/21 04:43:26;;;;;;;3.55;1.00;;;12.80;99.90;;;;;;4998573;28;20470;-91
2021/10/21 04:45:57;;;;;;;7.43;1.45;;;12.70;99.90;;;;;;5031518;28;20112;-90
2021/10/21 04:48:23;;;;;;;6.88;1.23;;;12.70;99.90;;;;;;5002679;28;20056;-89
2021/10/21 04:50:52;;;;;;;5.88;1.02;;;12.70;99.90;;;;;;5020404;28;20018;-89
2021/10/21 04:53:17;;;;;;;6.68;0.93;;;12.70;99.90;;;;;;5014391;28;20119;-90
2021/10/21 04:55:43;;;;;;;4.50;1.20;;;12.70;99.90;;;;;;4996257;28;20041;-90
2021/10/21 04:58:09;;;;;;;5.45;0.90;;;12.70;99.90;;;;;;5009019;28;20033;-89
2021/10/21 05:00:35;;;;;;;6.88;1.08;;;12.70;99.90;;;;;;5027627;28;20032;-90
2021/10/21 05:03:09;;;;;;;5.10;1.35;;;12.70;99.90;;;;;;5022710;28;20466;-90
2021/10/21 05:05:35;;;;;;;4.47;1.08;;;12.70;99.90;;;;;;5038364;28;20099;-90
2021/10/21 05:08:01;;;;;;;4.03;0.90;;;12.70;99.90;;;;;;5004453;28;20026;-89
2021/10/21 05:10:27;;;;;;;6.65;1.05;;;12.70;99.90;;;;;;5021028;23;20104;-84
2021/10/21 05:12:53;;;;;;;5.22;1.10;;;12.70;99.90;;;;;;5050710;28;20029;-84
2021/10/21 05:15:18;;;;;;;6.57;1.10;;;12.70;99.90;;;;;;5020432;28;20049;-83
2021/10/21 05:17:45;;;;;;;8.65;1.23;;;12.70;99.90;;;;;;4999019;28;20164;-83
2021/10/21 05:20:11;;;;;;;4.15;0.93;;;12.70;99.90;;;;;;5019996;28;20087;-83
2021/10/21 05:22:37;;;;;;;4.10;0.90;;;12.70;99.90;;;;;;4995606;28;20031;-84
2021/10/21 05:25:05;;;;;;;2.65;0.90;;;12.70;99.90;;;;;;5009953;28;20017;-84
2021/10/21 05:27:30;;;;;;;5.05;0.90;;;12.70;99.90;;;;;;5014773;28;20018;-84
2021/10/21 05:29:56;;;;;;;6.68;1.30;;;12.70;99.90;;;;;;5010094;28;20488;-84
2021/10/21 05:32:22;;;;;;;6.95;1.08;;;12.70;99.90;;;;;;5020817;28;20171;-83
2021/10/21 05:34:48;;;;;;;4.55;1.13;;;12.70;99.90;;;;;;5014041;28;20030;-84
2021/10/21 05:37:14;;;;;;;2.15;0.75;;;12.80;99.90;;;;;;4996816;28;20035;-84
2021/10/21 05:39:40;;;;;;;3.00;1.10;;;12.70;99.90;;;;;;5014650;28;20036;-84
2021/10/21 05:42:06;;;;;;;5.10;1.30;;;12.70;99.90;;;;;;5012798;28;20026;-84
2021/10/21 05:44:32;;;;;;;4.05;0.90;;;12.80;99.90;;;;;;5010996;28;20080;-84
2021/10/21 05:46:58;;;;;;;6.60;1.77;;;12.80;99.90;;;;;;5003174;28;20036;-85
2021/10/21 05:49:24;;;;;;;3.60;1.10;;;12.70;99.90;;;;;;5031945;28;20026;-85
2021/10/21 05:51:50;;;;;;;2.35;0.98;;;12.70;99.90;;;;;;5029926;28;20494;-85
2021/10/21 05:54:15;;;;;;;4.90;1.23;;;12.70;99.90;;;;;;5008944;28;20392;-85
2021/10/21 05:56:41;;;;;;;1.08;0.57;;;12.60;99.90;;;;;;5016404;28;20117;-85
2021/10/21 05:59:07;;;;;;;2.05;0.50;;;12.60;99.90;;;;;;5020166;28;20034;-84
2021/10/21 06:01:33;;;;;;;3.92;0.65;;;12.60;99.90;;;;;;4996307;28;20034;-85
2021/10/21 06:03:58;;;;;;;2.08;0.68;;;12.50;99.90;;;;;;5018073;28;20059;-85
2021/10/21 06:06:24;;;;;;;2.67;0.95;;;12.50;99.90;;;;;;5031569;28;20126;-85
2021/10/21 06:08:50;;;;;;;2.72;0.55;;;12.40;99.90;;;;;;4997878;28;20041;-85
2021/10/21 06:11:16;;;;;;;1.55;0.50;;;12.40;99.90;;;;;;4994680;28;20081;-85
2021/10/21 06:13:41;;;;;;;2.70;0.40;;;12.40;99.90;;;;;;5011246;28;20361;-85
2021/10/21 06:16:08;;;;;;;1.92;0.47;;;12.30;99.90;;;;;;5001485;28;20037;-86
2021/10/21 06:18:34;;;;;;;1.45;0.40;;;12.30;99.90;;;;;;5020318;28;20022;-85
2021/10/21 06:21:02;;;;;;;2.10;0.60;;;12.30;99.90;;;;;;5033580;28;20029;-85
2021/10/21 06:23:28;;;;;;;2.38;0.57;;;12.30;99.90;;;;;;5029186;28;20104;-85
2021/10/21 06:25:54;;;;;;;2.03;0.45;;;12.20;99.90;;;;;;5046811;28;20443;-85
2021/10/21 06:28:20;;;;;;;2.47;0.50;;;12.20;99.90;;;;;;5018784;28;20030;-85
2021/10/21 06:30:47;;;;;;;3.50;1.35;;;12.20;99.90;;;;;;4995131;28;20029;-84
2021/10/21 06:33:16;;;;;;;1.55;0.70;;;12.20;99.90;;;;;;4994673;28;20033;-84
2021/10/21 06:35:45;;;;;;;5.45;1.10;;;12.20;99.90;;;;;;5003305;28;20521;-84
2021/10/21 06:38:13;;;;;;;2.30;0.88;;;12.20;99.90;;;;;;5013617;28;20026;-84
2021/10/21 06:40:39;;;;;;;4.15;1.10;;;12.20;99.90;;;;;;5014110;28;20022;-85
2021/10/21 06:43:05;;;;;;;3.05;0.80;;;12.20;99.90;;;;;;5014269;28;20467;-85
2021/10/21 06:45:33;;;;;;;2.25;0.77;;;12.20;99.90;;;;;;5015392;28;20088;-84
2021/10/21 06:48:14;;;;;;;4.88;1.10;;;12.20;99.90;;;;;;5030031;28;20490;-84
2021/10/21 06:50:39;;;;;;;3.88;0.73;;;12.10;99.90;;;;;;5030199;28;20102;-84
2021/10/21 06:53:05;;;;;;;3.95;0.77;;;12.10;99.90;;;;;;5023853;28;20515;-84
2021/10/21 06:55:31;;;;;;;5.10;0.80;;;12.10;99.90;;;;;;4994219;28;20030;-83
2021/10/21 06:57:58;;;;;;;5.57;0.93;;;12.20;99.90;;;;;;4993280;28;20023;-84
2021/10/21 07:00:28;;;;;;;3.65;0.80;;;12.10;99.90;;;;;;5019678;28;20069;-84
2021/10/21 07:02:55;;;;;;;8.20;1.13;;;12.10;99.90;;;;;;5013818;28;20018;-84
2021/10/21 07:05:26;;;;;;;4.65;1.10;;;12.10;99.90;;;;;;5012625;28;20022;-85
2021/10/21 07:07:52;;;;;;;7.60;1.20;;;12.10;99.90;;;;;;5025259;28;20028;-85
2021/10/21 07:10:18;;;;;;;8.05;1.25;;;12.10;99.90;;;;;;5014940;28;20046;-84
2021/10/21 07:12:46;;;;;;;7.10;1.75;;;12.10;99.90;;;;;;4997081;28;20026;-85
2021/10/21 07:15:12;;;;;;;6.35;1.33;;;12.00;99.90;;;;;;4997093;28;20107;-84
2021/10/21 07:17:40;;;;;;;7.43;1.48;;;12.00;99.90;;;;;;5014155;28;20065;-85
2021/10/21 07:20:08;;;;;;;8.10;1.30;;;12.00;99.90;;;;;;5012721;28;20467;-84
2021/10/21 07:22:33;;;;;;;8.35;1.30;;;12.00;99.90;;;;;;5012653;28;20026;-84
2021/10/21 07:24:59;;;;;;;7.97;1.20;;;12.00;99.90;;;;;;5012826;28;20026;-84
2021/10/21 07:27:25;;;;;;;7.35;1.30;;;12.00;99.90;;;;;;4992842;28;20041;-85
2021/10/21 07:29:51;;;;;;;8.43;1.35;;;12.00;99.90;;;;;;5006005;28;20021;-84
2021/10/21 07:32:17;;;;;;;6.70;1.63;;;12.00;99.90;;;;;;5013550;28;20360;-84
2021/10/21 07:34:43;;;;;;;8.82;1.50;;;12.00;99.90;;;;;;5010241;28;20121;-85
2021/10/21 07:37:12;;;;;;;11.80;1.75;;;12.00;99.90;;;;;;5013857;28;20553;-85
2021/10/21 07:39:40;;;;;;;10.68;1.90;;;12.00;99.90;;;;;;4996221;28;20522;-85
2021/10/21 07:42:10;;;;;;;7.90;1.45;;;12.00;99.90;;;;;;5012564;28;20026;-84
2021/10/21 07:44:37;;;;;;;10.17;2.57;;;12.00;99.90;;;;;;5012222;28;20034;-84
2021/10/21 07:47:09;;;;;;;10.95;2.22;;;12.00;99.90;;;;;;4995080;28;20618;-84
2021/10/21 07:49:35;;;;;;;10.73;1.60;;;11.90;99.60;;;;;;4993173;28;20485;-84
2021/10/21 07:52:02;;;;;;;9.48;1.92;;;12.00;99.60;;;;;;5012191;28;20065;-85
2021/10/21 07:54:29;;;;;;;7.45;2.03;;;11.90;99.70;;;;;;4992684;28;20062;-84
2021/10/21 07:56:59;;;;;;;10.82;1.92;;;11.90;99.80;;;;;;4995822;28;20026;-84
2021/10/21 07:59:26;;;;;;;9.02;1.60;;;11.90;99.50;;;;;;5012152;28;20045;-84
2021/10/21 08:01:53;;;;;;;10.27;2.03;;;11.90;99.30;;;;;;5011984;28;20177;-84
2021/10/21 08:04:18;;;;;;;10.15;1.73;;;11.80;99.50;;;;;;5001857;28;20022;-84
2021/10/21 08:06:45;;;;;;;6.70;1.52;;;11.80;99.50;;;;;;5012355;28;20026;-84
2021/10/21 08:09:11;;;;;;;11.18;2.30;;;11.90;99.60;;;;;;5003726;28;20029;-85
2021/10/21 08:11:38;;;;;;;10.52;2.05;;;11.90;99.20;;;;;;5010937;28;20055;-84
2021/10/21 08:14:05;;;;;;;9.02;1.92;;;11.90;99.20;;;;;;5006357;28;20028;-85
2021/10/21 08:16:31;;;;;;;7.80;2.05;;;11.90;98.50;;;;;;4995107;28;20477;-84
2021/10/21 08:18:58;;;;;;;7.13;1.33;;;12.00;98.70;;;;;;4991886;28;20089;-85
2021/10/21 08:21:24;;;;;;;9.38;1.50;;;12.00;98.40;;;;;;4999431;28;20020;-84
2021/10/21 08:23:55;;;;;;;11.27;1.90;;;12.00;97.20;;;;;;4999323;28;20035;-85
2021/10/21 08:26:22;;;;;;;7.60;1.90;;;12.00;96.70;;;;;;5000488;28;20373;-84
2021/10/21 08:28:49;;;;;;;9.40;2.13;;;12.00;96.70;;;;;;4958014;28;20347;-85
2021/10/21 08:31:15;;;;;;;8.85;1.85;;;12.10;96.40;;;;;;5010268;28;20032;-84
2021/10/21 08:33:42;;;;;;;9.07;1.55;;;12.10;96.20;;;;;;5006658;28;20032;-84
2021/10/21 08:36:11;;;;;;;8.55;1.63;;;12.10;95.20;;;;;;5015013;28;20043;-82
2021/10/21 08:38:38;;;;;;;10.75;2.10;;;12.10;95.70;;;;;;5003043;28;20019;-85
2021/10/21 08:41:06;;;;;;;8.13;1.88;;;12.20;95.70;;;;;;5009757;28;20501;-85
2021/10/21 08:43:32;;;;;;;13.23;2.60;;;12.30;95.60;;;;;;5029403;28;20019;-85
2021/10/21 08:45:59;;;;;;;8.73;2.13;;;12.30;94.80;;;;;;5010699;28;20079;-85
2021/10/21 08:48:27;;;;;;;6.07;1.30;;;12.30;94.90;;;;;;4942596;28;20023;-85
2021/10/21 08:50:56;;;;;;;8.63;1.83;;;12.40;94.80;;;;;;5025909;28;20412;-85
2021/10/21 08:53:21;;;;;;;9.63;1.92;;;12.40;95.30;;;;;;5010455;28;20535;-85
2021/10/21 08:55:51;;;;;;;10.85;1.75;;;12.50;94.70;;;;;;5016559;28;20109;-85
2021/10/21 08:58:16;;;;;;;10.00;1.95;;;12.50;95.20;;;;;;4997590;28;20118;-85
2021/10/21 09:00:42;;;;;;;7.30;1.98;;;12.60;95.00;;;;;;4998976;28;20063;-84
2021/10/21 09:03:15;;;;;;;12.43;2.47;;;12.60;95.20;;;;;;5008766;28;20035;-85
2021/10/21 09:05:50;;;;;;;10.02;1.75;;;12.60;95.30;;;;;;4987253;28;20114;-85
2021/10/21 09:08:19;;;;;;;7.85;1.40;;;12.60;94.50;;;;;;5010704;28;20543;-85
2021/10/21 09:10:45;;;;;;;5.95;1.33;;;12.60;94.60;;;;;;4942170;28;20074;-84
2021/10/21 09:13:23;;;;;;;8.02;1.42;;;12.60;94.70;;;;;;4922555;28;20023;-84
2021/10/21 09:15:50;;;;;;;4.97;1.08;;;12.60;95.10;;;;;;4942841;28;20130;-84
2021/10/21 09:18:17;;;;;;;4.07;1.02;;;12.60;95.60;;;;;;4947399;28;20484;-85
2021/10/21 09:20:48;;;;;;;7.90;1.60;;;12.60;96.10;;;;;;4941602;28;20025;-85
2021/10/21 09:23:19;;;;;;;10.10;1.92;;;12.50;96.20;;;;;;4948667;28;20027;-84
2021/10/21 09:25:46;;;;;;;8.48;1.50;;;12.50;96.50;;;;;;4951384;28;20047;-84
2021/10/21 09:28:27;;;;;;;5.28;1.30;;;12.50;96.60;;;;;;4939007;28;20032;-84
2021/10/21 09:31:04;;;;;;;11.93;1.95;;;12.40;96.90;;;;;;4944920;28;20038;-84
2021/10/21 09:33:56;;;;;;;6.00;1.40;;;12.40;97.00;;;;;;4915293;28;20469;-84
2021/10/21 09:36:26;;;;;;;6.03;1.60;;;12.30;97.20;;;;;;5001854;28;20429;-84
2021/10/21 09:38:54;;;;;;;6.57;1.52;;;12.30;97.40;;;;;;4947651;28;20430;-85
2021/10/21 09:41:23;;;;;;;8.43;1.67;;;12.30;97.50;;;;;;4947007;28;20027;-84
2021/10/21 09:43:51;;;;;;;5.97;1.20;;;12.30;97.60;;;;;;4952972;28;20031;-84
2021/10/21 09:46:41;;;;;;;7.50;1.10;;;12.30;97.70;;;;;;4923390;28;20060;-84
2021/10/21 09:49:32;;;;;;;10.27;1.77;;;12.30;97.90;;;;;;4931988;28;20050;-83
2021/10/21 09:52:01;;;;;;;9.88;1.65;;;12.20;98.10;;;;;;4946175;29;20023;-84
2021/10/21 09:54:27;;;;;;;10.15;1.98;;;12.20;98.30;;;;;;4996817;28;20053;-85
2021/10/21 09:56:56;;;;;;;10.52;2.00;;;12.20;98.50;;;;;;4944636;28;20059;-84
2021/10/21 09:59:44;;;;;;;10.43;2.03;;;12.20;98.80;;;;;;4936310;28;20019;-84
2021/10/21 10:02:16;;;;;;;9.00;1.50;;;12.20;99.00;;;;;;4925168;28;20028;-85
2021/10/21 10:04:46;;;;;;;3.97;1.13;;;12.10;99.30;;;;;;4942650;28;20119;-85
2021/10/21 10:07:12;;;;;;;6.15;1.30;;;12.00;99.30;;;;;;4947600;28;20123;-86
2021/10/21 10:09:38;;;;;;;7.50;1.40;;;11.90;99.40;;;;;;4918701;28;20035;-87
2021/10/21 10:12:05;;;;;;;7.72;1.48;;;11.80;99.60;;;;;;5011798;28;20065;-86
2021/10/21 10:14:34;;;;;;;10.48;1.70;;;11.70;99.70;;;;;;4933692;28;20023;-86
2021/10/21 10:17:01;;;;;;;7.85;1.20;;;11.70;99.90;;;;;;4918066;28;20031;-86
2021/10/21 10:19:28;;;;;;;7.93;1.55;;;11.70;99.90;;;;;;4948872;28;20032;-86
2021/10/21 10:21:59;;;;;;;5.53;2.35;;;11.70;99.90;;;;;;4959129;28;20478;-87
2021/10/21 10:24:30;;;;;;;6.40;1.33;;;11.70;99.90;;;;;;4996812;28;20034;-86
2021/10/21 10:26:58;;;;;;;7.30;1.20;;;11.70;99.90;;;;;;4982007;28;20028;-87
2021/10/21 10:29:32;;;;;;;6.45;1.27;;;11.80;99.90;;;;;;4980615;28;20152;-87
2021/10/21 10:32:05;;;;;;;9.50;1.45;;;11.80;99.90;;;;;;4934481;28;20035;-86
2021/10/21 10:34:34;;;;;;;4.03;1.10;;;11.80;99.90;;;;;;4918801;28;20023;-86
2021/10/21 10:37:32;;;;;;;8.32;1.27;;;11.90;99.90;;;;;;4917644;28;20042;-86
2021/10/21 10:40:00;;;;;;;9.88;1.75;;;11.90;99.90;;;;;;4927812;28;20032;-86
2021/10/21 10:42:29;;;;;;;9.82;1.30;;;11.80;99.90;;;;;;4935520;28;20104;-86
2021/10/21 10:44:55;;;;;;;8.45;1.70;;;11.80;99.90;;;;;;4917434;28;20047;-86
2021/10/21 10:47:51;;;;;;;7.68;1.75;;;11.90;99.90;;;;;;4917167;28;20055;-86
2021/10/21 10:50:42;;;;;;;8.18;1.85;;;11.90;99.90;;;;;;4917137;28;20032;-85
2021/10/21 10:53:09;;;;;;;9.27;1.55;;;11.90;99.90;;;;;;4914744;28;20042;-85
2021/10/21 10:55:38;;;;;;;11.18;2.72;;;12.00;99.90;;;;;;4983054;28;20032;-86
2021/10/21 10:58:04;;;;;;;4.15;1.33;;;11.90;99.90;;;;;;4917082;28;20040;-85
2021/10/21 11:00:45;;;;;;;9.00;2.92;;;12.00;99.90;;;;;;4943578;28;20029;-85
2021/10/21 11:03:11;;;;;;;11.35;1.88;;;12.00;99.90;;;;;;5032408;28;20017;-85
2021/10/21 11:05:43;;;;;;;13.05;1.83;;;12.00;99.90;;;;;;4917075;28;20024;-86
2021/10/21 11:08:12;;;;;;;7.45;1.67;;;12.10;99.90;;;;;;4954797;28;20028;-86
2021/10/21 11:10:42;;;;;;;11.10;1.90;;;12.10;99.90;;;;;;4977683;28;20048;-85
2021/10/21 11:13:41;;;;;;;13.20;2.30;;;12.10;99.90;;;;;;4993773;28;20036;-85
2021/10/21 11:16:47;;;;;;;8.88;1.67;;;12.10;99.90;;;;;;4948189;28;20048;-86
2021/10/21 11:22:55;;;;;;;7.90;2.03;;;12.20;99.90;;;;;;4983727;28;20101;-86
2021/10/21 11:25:28;;;;;;;7.93;1.92;;;12.30;99.90;;;;;;4967723;28;20046;-85
2021/10/21 11:27:54;;;;;;;12.18;2.28;;;12.40;99.90;;;;;;4956600;28;20023;-86
2021/10/21 11:30:25;;;;;;;9.77;1.65;;;12.50;99.90;;;;;;4978379;28;20113;-85
2021/10/21 11:32:52;;;;;;;7.38;1.70;;;12.60;99.90;;;;;;4972696;28;20100;-85
2021/10/21 11:35:26;;;;;;;9.07;1.48;;;12.50;99.70;;;;;;4957020;28;20030;-85
2021/10/21 11:37:57;;;;;;;6.82;1.25;;;12.60;99.90;;;;;;4972831;28;20053;-85
2021/10/21 11:40:32;;;;;;;9.52;1.65;;;12.50;99.60;;;;;;4950949;28;20126;-85
2021/10/21 11:43:01;;;;;;;11.25;1.90;;;12.50;99.40;;;;;;4966371;28;20065;-84
2021/10/21 11:45:32;;;;;;;7.10;1.10;;;12.50;99.90;;;;;;4987578;28;20550;-84
2021/10/21 11:48:01;;;;;;;9.43;1.65;;;12.50;99.40;;;;;;4972522;28;20038;-83
2021/10/21 11:50:33;;;;;;;6.78;1.85;;;12.60;99.40;;;;;;4978973;28;20034;-85
2021/10/21 11:52:59;;;;;;;6.38;1.35;;;12.60;99.50;;;;;;4976746;28;20360;-85
2021/10/21 11:55:29;;;;;;;7.07;1.00;;;12.70;99.20;;;;;;4991070;28;20026;-85
2021/10/21 11:58:07;;;;;;;6.00;1.63;;;12.70;99.30;;;;;;5002841;28;20039;-85
2021/10/21 12:00:36;;;;;;;3.05;0.80;;;12.80;98.30;;;;;;4978196;28;20528;-84
2021/10/21 12:03:02;;;;;;;1.20;0.40;;;12.80;97.70;;;;;;4980325;28;20037;-85
2021/10/21 12:05:40;;;;;;;4.72;0.50;;;12.70;97.90;;;;;;4917843;28;20027;-84
2021/10/21 12:08:07;;;;;;;2.95;0.80;;;12.70;97.50;;;;;;4990131;28;20039;-85
2021/10/21 12:10:36;;;;;;;3.30;0.77;;;12.60;97.50;;;;;;4984034;28;20056;-85
2021/10/21 12:16:24;;;;;;;1.80;0.38;;;12.50;97.70;;;;;;4943252;28;20115;-85
2021/10/21 12:18:50;;;;;;;4.80;1.30;;;12.40;98.00;;;;;;4960246;28;20117;-83
2021/10/21 12:21:15;;;;;;;4.30;1.23;;;12.30;98.10;;;;;;4979305;28;20123;-84
2021/10/21 12:23:51;;;;;;;3.53;0.93;;;12.20;98.40;;;;;;4975157;28;20081;-84
2021/10/21 12:26:30;;;;;;;3.45;1.02;;;12.20;98.50;;;;;;4931188;29;20020;-84
2021/10/21 12:29:10;;;;;;;5.65;1.10;;;12.20;98.50;;;;;;5000992;28;20508;-84
2021/10/21 12:31:38;;;;;;;3.55;1.00;;;12.20;98.70;;;;;;4938945;28;20368;-84
2021/10/21 12:34:57;;;;;;;5.45;1.08;;;12.10;98.80;;;;;;4927567;28;20026;-84
2021/10/21 12:37:27;;;;;;;4.70;0.90;;;12.10;98.80;;;;;;4980920;28;20531;-84
2021/10/21 12:39:53;;;;;;;5.25;1.00;;;12.10;98.80;;;;;;5001147;28;20528;-85
2021/10/21 12:42:27;;;;;;;6.00;2.10;;;12.10;99.40;;;;;;4982647;28;20025;-85
2021/10/21 12:45:00;;;;;;;3.67;1.30;;;12.00;98.70;;;;;;5004754;28;20433;-85
2021/10/21 12:47:31;;;;;;;3.72;1.45;;;11.90;99.00;;;;;;4983515;28;20089;-85
2021/10/21 12:50:00;;;;;;;3.85;1.27;;;11.80;98.70;;;;;;5000768;28;20039;-85
2021/10/21 12:52:35;;;;;;;4.57;0.90;;;11.80;99.10;;;;;;4999013;28;20026;-84
2021/10/21 12:55:13;;;;;;;3.70;1.27;;;11.70;99.10;;;;;;4994328;28;20063;-85
2021/10/21 12:57:54;;;;;;;7.85;1.50;;;11.70;99.30;;;;;;4930936;28;20028;-84
2021/10/21 13:00:28;;;;;;;4.93;1.30;;;11.70;99.30;;;;;;4994723;28;20012;-85
2021/10/21 13:03:02;;;;;;;7.03;2.17;;;11.60;99.50;;;;;;5011521;28;20045;-85
2021/10/21 13:05:28;;;;;;;4.20;1.85;;;11.60;99.90;;;;;;4918610;28;20039;-84
2021/10/21 13:07:54;;;;;;;6.90;2.38;;;11.60;99.90;;;;;;4986439;28;20405;-85
2021/10/21 13:10:19;;;;;;;8.50;3.67;;;11.70;99.80;;;;;;5000115;28;20477;-85